Swanton, Vermont
Current Conditions -  °F | °C
As of 3:35 AM on Tuesday 27 Jan 2015 (Local Time) from KFSO Reporting Station
Clear Clear  
Wind Chill: -7°   Ceiling: Unl
Heat Index:   Visibility: 10mi
Dew Point: -3°   Wind: 7mph
Humidity: 69%   Direction: 360°N
Pressure: 30.01"   Gusts: NA
Location:  44.92°N, 73.12°W
Report Text: KFSO 270835Z AUTO 36006KT 10SM CLR M15/M20 A3001 RMK AO2 T11501196
Loading
Personal Weather Stations






























Interactive Weather Map New forecast layout! Learn more

10-Day Weather Forecast

Advertisements
Track Severe Weather on mobile